Time;durP1;ratioP1;P1;durP2;ratioP2;P2;SDS_P1;SDS_P2;PMS_P1;PMS_P2;Temp;Humidity;BMP_temperature;BMP_pressure;BME280_temperature;BME280_humidity;BME280_pressure;Samples;Min_cycle;Max_cycle;Signal;HPM_P1;HPM_P2
2024/01/07 00:00:21;;;;;;;;;;;14.00;70.90;;;;;;6214748;23;19937;-72
2024/01/07 00:02:47;;;;;;;;;;;14.00;70.90;;;;;;6214688;23;19904;-72
2024/01/07 00:05:12;;;;;;;;;;;14.10;71.10;;;;;;6214988;23;19939;-72
2024/01/07 00:07:38;;;;;;;;;;;14.10;71.00;;;;;;6215054;23;19982;-72
2024/01/07 00:10:05;;;;;;;;;;;14.40;71.20;;;;;;6215077;23;19974;-72
2024/01/07 00:12:31;;;;;;;;;;;14.00;70.40;;;;;;6215026;23;20209;-72
2024/01/07 00:14:56;;;;;;;;;;;14.10;71.10;;;;;;6215005;23;19904;-72
2024/01/07 00:17:23;;;;;;;;;;;14.10;71.00;;;;;;6214738;23;19904;-72
2024/01/07 00:19:49;;;;;;;;;;;14.00;71.20;;;;;;6215037;23;19924;-72
2024/01/07 00:22:15;;;;;;;;;;;14.00;70.50;;;;;;6214950;23;19989;-72
2024/01/07 00:24:41;;;;;;;;;;;14.00;70.80;;;;;;6214647;23;20228;-72
2024/01/07 00:27:08;;;;;;;;;;;14.10;70.80;;;;;;6214937;23;19916;-72
2024/01/07 00:29:35;;;;;;;;;;;14.10;70.70;;;;;;6214495;23;19958;-72
2024/01/07 00:32:02;;;;;;;;;;;14.00;70.60;;;;;;6215015;23;19908;-72
2024/01/07 00:34:27;;;;;;;;;;;14.20;71.10;;;;;;6215001;23;20212;-72
2024/01/07 00:36:53;;;;;;;;;;;14.10;70.90;;;;;;6214608;23;19939;-73
2024/01/07 00:39:20;;;;;;;;;;;14.00;70.70;;;;;;6214468;23;19943;-72
2024/01/07 00:41:46;;;;;;;;;;;14.00;70.80;;;;;;6214320;23;19908;-72
2024/01/07 00:44:12;;;;;;;;;;;14.00;70.60;;;;;;6214908;23;19904;-73
2024/01/07 00:46:38;;;;;;;;;;;14.00;70.40;;;;;;6216475;23;19988;-72
2024/01/07 00:49:04;;;;;;;;;;;13.90;70.30;;;;;;6217314;23;19966;-72
2024/01/07 00:51:30;;;;;;;;;;;14.00;70.60;;;;;;6216300;23;20314;-73
2024/01/07 00:53:55;;;;;;;;;;;13.90;70.20;;;;;;6216268;23;19911;-72
2024/01/07 00:56:20;;;;;;;;;;;14.00;70.30;;;;;;6216665;23;19911;-72
2024/01/07 00:58:46;;;;;;;;;;;13.70;70.20;;;;;;6216158;23;19911;-72
2024/01/07 01:01:11;;;;;;;;;;;14.00;70.40;;;;;;6216006;23;19904;-73
2024/01/07 01:03:37;;;;;;;;;;;13.90;69.70;;;;;;6215877;23;20367;-73
2024/01/07 01:06:03;;;;;;;;;;;14.00;70.10;;;;;;6215980;23;19923;-72
2024/01/07 01:08:29;;;;;;;;;;;14.00;69.50;;;;;;6215880;23;19908;-72
2024/01/07 01:10:54;;;;;;;;;;;13.90;70.10;;;;;;6215978;23;19904;-72
2024/01/07 01:13:20;;;;;;;;;;;13.90;70.10;;;;;;6215920;23;19904;-73
2024/01/07 01:15:45;;;;;;;;;;;13.90;69.90;;;;;;6215924;23;19954;-72
2024/01/07 01:18:11;;;;;;;;;;;14.10;70.20;;;;;;6216926;23;20038;-72
2024/01/07 01:20:37;;;;;;;;;;;13.90;70.50;;;;;;6215701;23;19920;-72
2024/01/07 01:23:03;;;;;;;;;;;13.90;70.00;;;;;;6215859;23;20285;-72
2024/01/07 01:25:29;;;;;;;;;;;13.90;69.60;;;;;;6215640;23;19923;-73
2024/01/07 01:27:56;;;;;;;;;;;13.80;70.40;;;;;;6215844;23;20382;-72
2024/01/07 01:30:21;;;;;;;;;;;13.80;69.90;;;;;;6216381;23;19904;-73
2024/01/07 01:32:47;;;;;;;;;;;13.90;70.20;;;;;;6216218;23;19926;-73
2024/01/07 01:35:13;;;;;;;;;;;13.90;70.10;;;;;;6216229;23;20070;-73
2024/01/07 01:37:39;;;;;;;;;;;13.80;69.60;;;;;;6215815;23;19904;-73
2024/01/07 01:40:05;;;;;;;;;;;13.70;69.80;;;;;;6216272;23;19979;-73
2024/01/07 01:42:31;;;;;;;;;;;13.80;68.40;;;;;;6215806;23;19904;-72
2024/01/07 01:45:01;;;;;;;;;;;13.80;70.00;;;;;;6215869;23;19994;-72
2024/01/07 01:47:28;;;;;;;;;;;13.80;69.60;;;;;;6216323;23;19912;-72
2024/01/07 01:49:54;;;;;;;;;;;13.90;70.50;;;;;;6216058;23;19904;-72
2024/01/07 01:52:20;;;;;;;;;;;13.80;70.20;;;;;;6215503;23;19910;-72
2024/01/07 01:54:45;;;;;;;;;;;13.90;69.90;;;;;;6215390;23;19907;-72
2024/01/07 01:57:20;;;;;;;;;;;13.80;69.90;;;;;;6215323;23;19983;-72
2024/01/07 01:59:46;;;;;;;;;;;13.80;70.10;;;;;;6215473;23;20327;-72
2024/01/07 02:02:11;;;;;;;;;;;13.80;69.70;;;;;;6215334;23;19911;-72
2024/01/07 02:04:37;;;;;;;;;;;13.70;70.50;;;;;;6213779;23;20343;-72
2024/01/07 02:07:03;;;;;;;;;;;13.70;70.20;;;;;;6215886;23;20003;-72
2024/01/07 02:09:28;;;;;;;;;;;13.70;69.80;;;;;;6215341;23;19943;-72
2024/01/07 02:12:01;;;;;;;;;;;13.70;70.40;;;;;;6215343;23;20346;-72
2024/01/07 02:14:27;;;;;;;;;;;13.70;65.30;;;;;;6215938;23;20318;-73
2024/01/07 02:16:53;;;;;;;;;;;13.70;70.60;;;;;;6215250;23;19904;-72
2024/01/07 02:19:20;;;;;;;;;;;13.60;70.40;;;;;;6215039;23;19994;-73
2024/01/07 02:21:45;;;;;;;;;;;13.70;70.40;;;;;;6215126;23;19904;-73
2024/01/07 02:24:17;;;;;;;;;;;13.70;70.20;;;;;;6215356;23;19904;-73
2024/01/07 02:26:43;;;;;;;;;;;13.70;70.50;;;;;;6215737;23;19912;-73
2024/01/07 02:29:08;;;;;;;;;;;13.70;70.20;;;;;;6215154;23;20394;-73
2024/01/07 02:31:34;;;;;;;;;;;13.60;70.50;;;;;;6215432;23;19904;-73
2024/01/07 02:34:00;;;;;;;;;;;13.70;70.40;;;;;;6215459;23;19910;-73
2024/01/07 02:36:26;;;;;;;;;;;13.70;70.30;;;;;;6215751;23;19911;-73
2024/01/07 02:38:52;;;;;;;;;;;13.70;70.40;;;;;;6215699;23;20281;-72
2024/01/07 02:41:19;;;;;;;;;;;13.70;70.20;;;;;;6215685;23;19911;-72
2024/01/07 02:43:45;;;;;;;;;;;13.60;69.20;;;;;;6215577;23;19903;-73
2024/01/07 02:46:10;;;;;;;;;;;13.60;70.00;;;;;;6214942;23;20257;-72
2024/01/07 02:48:36;;;;;;;;;;;14.00;70.40;;;;;;6214975;23;19911;-73
2024/01/07 02:51:03;;;;;;;;;;;13.60;70.30;;;;;;6214979;23;19904;-72
2024/01/07 02:53:28;;;;;;;;;;;13.70;70.00;;;;;;6215043;23;19915;-72
2024/01/07 02:55:54;;;;;;;;;;;13.40;69.90;;;;;;6214891;23;19904;-72
2024/01/07 02:58:19;;;;;;;;;;;13.70;69.70;;;;;;6214936;23;19942;-72
2024/01/07 03:00:45;;;;;;;;;;;13.60;70.00;;;;;;6214776;23;19908;-73
2024/01/07 03:03:10;;;;;;;;;;;13.50;69.70;;;;;;6214714;23;20356;-72
2024/01/07 03:05:36;;;;;;;;;;;13.60;70.20;;;;;;6214715;23;19919;-72
2024/01/07 03:08:02;;;;;;;;;;;13.60;70.20;;;;;;6214485;23;20184;-73
2024/01/07 03:10:27;;;;;;;;;;;13.60;70.00;;;;;;6214766;23;19908;-72
2024/01/07 03:12:53;;;;;;;;;;;13.60;69.80;;;;;;6215936;23;19904;-72
2024/01/07 03:15:18;;;;;;;;;;;13.60;69.50;;;;;;6213222;23;19915;-72
2024/01/07 03:17:44;;;;;;;;;;;13.60;70.00;;;;;;6214612;23;19908;-73
2024/01/07 03:20:10;;;;;;;;;;;13.50;70.00;;;;;;6214526;23;19923;-73
2024/01/07 03:22:35;;;;;;;;;;;13.50;67.70;;;;;;6215293;23;20328;-72
2024/01/07 03:25:01;;;;;;;;;;;13.60;69.80;;;;;;6214715;23;19958;-71
2024/01/07 03:27:26;;;;;;;;;;;13.70;69.80;;;;;;6214571;23;19946;-72
2024/01/07 03:29:52;;;;;;;;;;;13.60;69.60;;;;;;6214627;23;20319;-72
2024/01/07 03:32:17;;;;;;;;;;;13.50;69.60;;;;;;6214674;23;19989;-72
2024/01/07 03:34:43;;;;;;;;;;;13.60;69.80;;;;;;6214685;23;19915;-72
2024/01/07 03:37:09;;;;;;;;;;;13.50;69.60;;;;;;6215236;23;20246;-72
2024/01/07 03:39:35;;;;;;;;;;;13.50;69.60;;;;;;6215342;23;20268;-72
2024/01/07 03:42:01;;;;;;;;;;;13.60;69.50;;;;;;6215238;23;19904;-72
2024/01/07 03:44:27;;;;;;;;;;;13.50;69.60;;;;;;6215372;23;20347;-72
2024/01/07 03:46:53;;;;;;;;;;;13.50;69.40;;;;;;6215076;23;19919;-72
2024/01/07 03:49:19;;;;;;;;;;;13.50;69.50;;;;;;6214915;23;19912;-71
2024/01/07 03:51:45;;;;;;;;;;;13.50;69.40;;;;;;6214778;23;19904;-72
2024/01/07 03:54:11;;;;;;;;;;;13.60;69.40;;;;;;6214797;23;19942;-72
2024/01/07 03:56:36;;;;;;;;;;;13.50;69.00;;;;;;6214764;23;19904;-72
2024/01/07 03:59:02;;;;;;;;;;;13.30;69.10;;;;;;6215157;23;19986;-72
2024/01/07 04:01:28;;;;;;;;;;;;;;;;;;6214382;23;19942;-72
2024/01/07 04:03:53;;;;;;;;;;;13.50;65.40;;;;;;6214521;23;19983;-72
2024/01/07 04:06:19;;;;;;;;;;;13.50;69.70;;;;;;6214285;23;20340;-73
2024/01/07 04:08:44;;;;;;;;;;;13.50;69.40;;;;;;6214635;23;19908;-73
2024/01/07 04:11:10;;;;;;;;;;;13.40;69.70;;;;;;6214481;23;19965;-73
2024/01/07 04:13:36;;;;;;;;;;;13.50;69.50;;;;;;6214507;23;19904;-72
2024/01/07 04:16:01;;;;;;;;;;;13.40;69.80;;;;;;6214415;23;19974;-73
2024/01/07 04:18:27;;;;;;;;;;;13.50;69.10;;;;;;6214265;23;20313;-73
2024/01/07 04:20:52;;;;;;;;;;;13.40;68.90;;;;;;6214765;23;19912;-73
2024/01/07 04:23:18;;;;;;;;;;;13.40;69.40;;;;;;6217069;23;19927;-72
2024/01/07 04:25:45;;;;;;;;;;;13.40;69.00;;;;;;6216372;23;19912;-75
2024/01/07 04:28:11;;;;;;;;;;;13.40;69.00;;;;;;6217026;23;19915;-73
2024/01/07 04:30:37;;;;;;;;;;;13.40;69.60;;;;;;6216891;23;19932;-74
2024/01/07 04:33:03;;;;;;;;;;;13.40;69.40;;;;;;6216941;23;19981;-73
2024/01/07 04:35:29;;;;;;;;;;;13.30;69.20;;;;;;6216431;23;19931;-74
2024/01/07 04:37:54;;;;;;;;;;;13.30;69.30;;;;;;6216277;23;20286;-73
2024/01/07 04:40:20;;;;;;;;;;;13.40;69.30;;;;;;6216301;23;20310;-72
2024/01/07 04:42:45;;;;;;;;;;;13.30;69.20;;;;;;6216207;23;19954;-73
2024/01/07 04:45:11;;;;;;;;;;;13.30;69.50;;;;;;6216660;23;19904;-73
2024/01/07 04:47:37;;;;;;;;;;;13.30;69.30;;;;;;6216761;23;19904;-73
2024/01/07 04:50:04;;;;;;;;;;;13.30;69.40;;;;;;6216068;23;19950;-73
2024/01/07 04:52:29;;;;;;;;;;;13.30;68.40;;;;;;6226146;23;19950;-73
2024/01/07 04:54:56;;;;;;;;;;;13.30;69.00;;;;;;6216854;23;19904;-73
2024/01/07 04:57:21;;;;;;;;;;;13.30;69.10;;;;;;6215962;23;19987;-73
2024/01/07 04:59:49;;;;;;;;;;;13.30;69.10;;;;;;6216382;23;19910;-73
2024/01/07 05:02:15;;;;;;;;;;;13.30;68.80;;;;;;6216089;23;20339;-72
2024/01/07 05:04:41;;;;;;;;;;;13.10;69.20;;;;;;6216709;23;19904;-73
2024/01/07 05:07:07;;;;;;;;;;;13.60;69.60;;;;;;6216507;23;19912;-73
2024/01/07 05:09:33;;;;;;;;;;;13.30;69.20;;;;;;6216284;23;19904;-73
2024/01/07 05:11:59;;;;;;;;;;;13.30;69.20;;;;;;6216575;23;20004;-73
2024/01/07 05:14:25;;;;;;;;;;;13.30;69.20;;;;;;6215923;23;19904;-72
2024/01/07 05:16:50;;;;;;;;;;;13.30;69.40;;;;;;6215908;23;20353;-73
2024/01/07 05:19:16;;;;;;;;;;;13.20;69.20;;;;;;6215679;23;19926;-73
2024/01/07 05:21:45;;;;;;;;;;;13.20;69.20;;;;;;6215395;23;20386;-73
2024/01/07 05:24:11;;;;;;;;;;;13.10;69.50;;;;;;6216945;23;19908;-73
2024/01/07 05:26:39;;;;;;;;;;;13.30;69.40;;;;;;6215921;23;19911;-73
2024/01/07 05:29:05;;;;;;;;;;;13.10;69.30;;;;;;6216264;23;19911;-73
2024/01/07 05:31:31;;;;;;;;;;;13.20;69.40;;;;;;6215949;23;19983;-73
2024/01/07 05:33:57;;;;;;;;;;;13.20;69.70;;;;;;6216377;23;20362;-73
2024/01/07 05:36:23;;;;;;;;;;;13.40;70.20;;;;;;6216338;23;19904;-73
2024/01/07 05:38:49;;;;;;;;;;;13.50;69.70;;;;;;6215928;23;19908;-73
2024/01/07 05:41:14;;;;;;;;;;;14.90;70.40;;;;;;6215833;23;19904;-72
2024/01/07 05:43:40;;;;;;;;;;;13.10;69.50;;;;;;6216290;23;19904;-73
2024/01/07 05:46:06;;;;;;;;;;;13.10;69.90;;;;;;6216107;23;19983;-73
2024/01/07 05:48:45;;;;;;;;;;;13.20;70.20;;;;;;6215573;23;19911;-73
2024/01/07 05:51:11;;;;;;;;;;;13.20;65.10;;;;;;6216093;23;20224;-73
2024/01/07 05:53:37;;;;;;;;;;;13.20;70.00;;;;;;6216733;23;19904;-73
2024/01/07 05:56:03;;;;;;;;;;;13.20;70.00;;;;;;6215553;23;20332;-73
2024/01/07 05:58:29;;;;;;;;;;;13.70;69.20;;;;;;6215533;23;19912;-75
2024/01/07 06:00:54;;;;;;;;;;;13.10;70.10;;;;;;6215394;23;19904;-74
2024/01/07 06:03:20;;;;;;;;;;;13.00;69.50;;;;;;6215714;23;19910;-73
2024/01/07 06:05:46;;;;;;;;;;;13.10;70.00;;;;;;6215627;23;19954;-74
2024/01/07 06:08:12;;;;;;;;;;;13.20;70.00;;;;;;6215992;23;19904;-73
2024/01/07 06:10:39;;;;;;;;;;;13.20;70.10;;;;;;6215859;23;19908;-73
2024/01/07 06:13:04;;;;;;;;;;;13.10;70.10;;;;;;6213774;23;20232;-74
2024/01/07 06:15:30;;;;;;;;;;;13.10;69.60;;;;;;6215204;23;19911;-73
2024/01/07 06:17:56;;;;;;;;;;;13.10;69.70;;;;;;6215387;23;19904;-73
2024/01/07 06:20:22;;;;;;;;;;;13.10;70.20;;;;;;6215774;23;19916;-73
2024/01/07 06:22:48;;;;;;;;;;;13.00;69.90;;;;;;6215229;23;19995;-73
2024/01/07 06:25:14;;;;;;;;;;;13.00;69.70;;;;;;6215434;23;19904;-73
2024/01/07 06:27:40;;;;;;;;;;;13.00;70.00;;;;;;6215759;23;19927;-73
2024/01/07 06:30:06;;;;;;;;;;;13.10;69.80;;;;;;6215762;23;19927;-73
2024/01/07 06:32:32;;;;;;;;;;;13.10;68.80;;;;;;6215725;23;19929;-72
2024/01/07 06:34:58;;;;;;;;;;;13.10;69.80;;;;;;6215796;23;19951;-72
2024/01/07 06:37:24;;;;;;;;;;;12.90;69.40;;;;;;6215729;23;19904;-71
2024/01/07 06:39:50;;;;;;;;;;;13.10;69.60;;;;;;6215685;23;19967;-72
2024/01/07 06:42:16;;;;;;;;;;;13.00;69.80;;;;;;6215304;23;19911;-72
2024/01/07 06:44:42;;;;;;;;;;;13.00;69.60;;;;;;6215214;23;20308;-72
2024/01/07 06:47:08;;;;;;;;;;;13.00;69.60;;;;;;6215542;23;19911;-72
2024/01/07 06:49:34;;;;;;;;;;;13.10;69.80;;;;;;6215753;23;19928;-72
2024/01/07 06:52:00;;;;;;;;;;;13.00;69.70;;;;;;6215472;23;20023;-72
2024/01/07 06:54:26;;;;;;;;;;;13.10;69.80;;;;;;6215628;23;19911;-73
2024/01/07 06:56:52;;;;;;;;;;;13.00;69.70;;;;;;6215453;23;20243;-73
2024/01/07 06:59:17;;;;;;;;;;;13.00;69.90;;;;;;6215148;23;20351;-73
2024/01/07 07:01:43;;;;;;;;;;;13.10;69.30;;;;;;6214837;23;19904;-72
2024/01/07 07:04:09;;;;;;;;;;;13.10;69.30;;;;;;6215522;23;19935;-72
2024/01/07 07:06:34;;;;;;;;;;;13.00;69.20;;;;;;6214733;23;19999;-72
2024/01/07 07:09:01;;;;;;;;;;;13.00;69.60;;;;;;6215063;23;19907;-73
2024/01/07 07:11:26;;;;;;;;;;;13.00;69.60;;;;;;6214811;23;19928;-72
2024/01/07 07:13:52;;;;;;;;;;;13.10;69.70;;;;;;6214964;23;20316;-72
2024/01/07 07:16:17;;;;;;;;;;;13.00;69.60;;;;;;6214808;23;19904;-72
2024/01/07 07:18:43;;;;;;;;;;;13.00;69.50;;;;;;6215639;23;19915;-73
2024/01/07 07:21:09;;;;;;;;;;;13.10;69.70;;;;;;6214770;23;19930;-73
2024/01/07 07:23:34;;;;;;;;;;;13.00;69.30;;;;;;6214728;23;19904;-73
2024/01/07 07:26:00;;;;;;;;;;;13.00;69.30;;;;;;6214529;23;19912;-73
2024/01/07 07:28:25;;;;;;;;;;;12.90;69.10;;;;;;6213082;23;19935;-72
2024/01/07 07:30:52;;;;;;;;;;;13.00;68.90;;;;;;6214576;23;20282;-72
2024/01/07 07:33:17;;;;;;;;;;;13.00;69.30;;;;;;6214587;23;19904;-72
2024/01/07 07:35:43;;;;;;;;;;;13.00;69.60;;;;;;6214538;23;19991;-73
2024/01/07 07:38:09;;;;;;;;;;;12.80;69.20;;;;;;6215232;23;19908;-73
2024/01/07 07:40:35;;;;;;;;;;;13.00;69.40;;;;;;6215286;23;20279;-73
2024/01/07 07:43:01;;;;;;;;;;;13.00;69.00;;;;;;6214841;23;19955;-72
2024/01/07 07:45:26;;;;;;;;;;;12.90;69.00;;;;;;6214527;23;19904;-73
2024/01/07 07:47:51;;;;;;;;;;;12.90;69.80;;;;;;6215015;23;19907;-72
2024/01/07 07:50:17;;;;;;;;;;;13.00;69.30;;;;;;6214675;23;20235;-73
2024/01/07 07:52:43;;;;;;;;;;;12.80;68.30;;;;;;6214941;23;19931;-73
2024/01/07 07:55:10;;;;;;;;;;;13.00;68.60;;;;;;6216422;23;19975;-72
2024/01/07 07:57:35;;;;;;;;;;;12.90;68.50;;;;;;6216616;23;19910;-72
2024/01/07 08:00:01;;;;;;;;;;;12.70;68.30;;;;;;6216682;23;19911;-72
2024/01/07 08:02:27;;;;;;;;;;;12.90;68.60;;;;;;6217279;23;19903;-73
2024/01/07 08:04:53;;;;;;;;;;;12.90;69.20;;;;;;6217212;23;19981;-73
2024/01/07 08:07:19;;;;;;;;;;;12.80;68.90;;;;;;6217168;23;19915;-74
2024/01/07 08:09:45;;;;;;;;;;;12.80;68.90;;;;;;6217280;23;19904;-74
2024/01/07 08:12:11;;;;;;;;;;;12.80;68.90;;;;;;6216799;23;19947;-74
2024/01/07 08:14:40;;;;;;;;;;;12.80;68.80;;;;;;6216742;23;19904;-75
2024/01/07 08:17:07;;;;;;;;;;;12.80;68.50;;;;;;6216834;23;19904;-73
2024/01/07 08:19:33;;;;;;;;;;;12.70;69.00;;;;;;6214918;23;19920;-73
2024/01/07 08:21:59;;;;;;;;;;;12.70;68.70;;;;;;6215179;23;19919;-74
2024/01/07 08:24:25;;;;;;;;;;;12.80;68.70;;;;;;6215562;23;19908;-73
2024/01/07 08:26:51;;;;;;;;;;;12.30;68.40;;;;;;6214886;23;19943;-73
2024/01/07 08:29:18;;;;;;;;;;;12.80;68.70;;;;;;6214916;23;19962;-74
2024/01/07 08:31:44;;;;;;;;;;;12.80;65.20;;;;;;6215385;23;19962;-73
2024/01/07 08:34:09;;;;;;;;;;;12.70;68.60;;;;;;6225335;23;19908;-74
2024/01/07 08:36:35;;;;;;;;;;;12.70;68.60;;;;;;6214716;23;19908;-73
2024/01/07 08:39:01;;;;;;;;;;;12.70;68.40;;;;;;6215258;23;19915;-74
2024/01/07 08:41:27;;;;;;;;;;;12.80;68.50;;;;;;6216539;23;19916;-74
2024/01/07 08:43:53;;;;;;;;;;;12.70;68.40;;;;;;6214907;23;19911;-74
2024/01/07 08:46:22;;;;;;;;;;;12.70;68.80;;;;;;6216314;23;20327;-73
2024/01/07 08:48:48;;;;;;;;;;;12.50;63.80;;;;;;6214714;23;19961;-74
2024/01/07 08:51:13;;;;;;;;;;;12.70;68.90;;;;;;6215825;23;19992;-74
2024/01/07 08:53:39;;;;;;;;;;;13.10;69.20;;;;;;6215259;23;19908;-73
2024/01/07 08:56:06;;;;;;;;;;;13.00;69.10;;;;;;6216633;23;19916;-74
2024/01/07 08:58:32;;;;;;;;;;;12.70;68.70;;;;;;6215163;23;20346;-73
2024/01/07 09:00:58;;;;;;;;;;;12.80;69.10;;;;;;6216544;23;19926;-74
2024/01/07 09:03:24;;;;;;;;;;;12.70;68.50;;;;;;6215026;23;19932;-72
2024/01/07 09:05:50;;;;;;;;;;;13.30;69.30;;;;;;6215278;23;19966;-72
2024/01/07 09:08:16;;;;;;;;;;;12.60;68.60;;;;;;6216211;23;19936;-71
2024/01/07 09:10:42;;;;;;;;;;;12.70;68.60;;;;;;6216583;23;19919;-72
2024/01/07 09:13:07;;;;;;;;;;;12.60;68.30;;;;;;6216526;23;19904;-72
2024/01/07 09:15:34;;;;;;;;;;;13.10;69.10;;;;;;6214709;23;19986;-72
2024/01/07 09:18:00;;;;;;;;;;;13.10;69.30;;;;;;6215131;23;19915;-72
2024/01/07 09:20:25;;;;;;;;;;;12.70;68.50;;;;;;6216680;23;19920;-71
2024/01/07 09:22:51;;;;;;;;;;;12.50;68.50;;;;;;6216579;23;20320;-72
2024/01/07 09:25:17;;;;;;;;;;;12.80;68.90;;;;;;6216554;23;19911;-71
2024/01/07 09:27:43;;;;;;;;;;;13.30;69.50;;;;;;6215791;23;19912;-72
2024/01/07 09:30:11;;;;;;;;;;;13.10;69.30;;;;;;6215935;23;19915;-73
2024/01/07 09:32:37;;;;;;;;;;;12.70;67.70;;;;;;6216380;23;19904;-73
2024/01/07 09:35:05;;;;;;;;;;;13.30;69.50;;;;;;6216417;23;20293;-74
2024/01/07 09:37:31;;;;;;;;;;;12.70;67.60;;;;;;6214843;23;19923;-74
2024/01/07 09:39:57;;;;;;;;;;;13.20;69.30;;;;;;6216063;23;20358;-74
2024/01/07 09:42:23;;;;;;;;;;;12.70;68.70;;;;;;6215935;23;19911;-73
2024/01/07 09:44:50;;;;;;;;;;;12.70;69.00;;;;;;6216037;23;19908;-73
2024/01/07 09:47:16;;;;;;;;;;;12.70;69.00;;;;;;6216090;23;20320;-74
2024/01/07 09:49:43;;;;;;;;;;;12.70;69.20;;;;;;6216400;23;19903;-74
2024/01/07 09:52:09;;;;;;;;;;;12.70;68.90;;;;;;6216160;23;19908;-73
2024/01/07 09:54:36;;;;;;;;;;;12.80;69.40;;;;;;6216108;23;20338;-74
2024/01/07 09:57:02;;;;;;;;;;;12.80;69.20;;;;;;6215876;23;20312;-73
2024/01/07 09:59:29;;;;;;;;;;;12.80;69.00;;;;;;6216129;23;19904;-72
2024/01/07 10:01:55;;;;;;;;;;;12.80;68.30;;;;;;6216025;23;19904;-72
2024/01/07 10:04:21;;;;;;;;;;;12.70;69.00;;;;;;6215999;23;19904;-72
2024/01/07 10:06:48;;;;;;;;;;;12.70;68.90;;;;;;6216048;23;19991;-72
2024/01/07 10:09:15;;;;;;;;;;;12.80;68.70;;;;;;6215955;23;19904;-72
2024/01/07 10:11:41;;;;;;;;;;;12.80;69.00;;;;;;6215966;23;19904;-71
2024/01/07 10:14:07;;;;;;;;;;;12.80;68.50;;;;;;6216024;23;19911;-72
2024/01/07 10:16:33;;;;;;;;;;;12.90;68.70;;;;;;6216365;23;19911;-73
2024/01/07 10:18:59;;;;;;;;;;;12.70;68.30;;;;;;6215531;23;20697;-73
2024/01/07 10:21:25;;;;;;;;;;;12.80;68.40;;;;;;6216007;23;19904;-74
2024/01/07 10:24:06;;;;;;;;;;;12.80;68.80;;;;;;6215853;23;19927;-73
2024/01/07 10:26:32;;;;;;;;;;;12.80;69.00;;;;;;6226336;23;19911;-72
2024/01/07 10:28:58;;;;;;;;;;;12.80;68.40;;;;;;6220261;23;19908;-73
2024/01/07 10:31:24;;;;;;;;;;;12.90;68.40;;;;;;6218278;23;20243;-72
2024/01/07 10:33:50;;;;;;;;;;;12.80;68.50;;;;;;6215825;23;20274;-73
2024/01/07 10:36:16;;;;;;;;;;;12.80;68.70;;;;;;6215832;23;19930;-78
2024/01/07 10:38:44;;;;;;;;;;;12.70;68.40;;;;;;6215759;23;20319;-75
2024/01/07 10:41:11;;;;;;;;;;;13.00;68.70;;;;;;6215606;23;20266;-75
2024/01/07 10:43:38;;;;;;;;;;;12.80;68.70;;;;;;6215615;23;19950;-74
2024/01/07 10:46:04;;;;;;;;;;;12.60;68.20;;;;;;6215130;23;20324;-74
2024/01/07 10:48:31;;;;;;;;;;;12.90;68.40;;;;;;6213558;23;19931;-74
2024/01/07 10:50:57;;;;;;;;;;;12.80;68.40;;;;;;6214975;23;19904;-74
2024/01/07 10:53:24;;;;;;;;;;;12.80;68.30;;;;;;6215079;23;19908;-75
2024/01/07 10:55:54;;;;;;;;;;;12.70;68.30;;;;;;6214988;23;19927;-75
2024/01/07 10:58:20;;;;;;;;;;;12.90;69.20;;;;;;6225372;23;20227;-75
2024/01/07 11:00:46;;;;;;;;;;;12.90;68.50;;;;;;6214870;23;19908;-76
2024/01/07 11:03:39;;;;;;;;;;;12.70;68.10;;;;;;6215019;23;19934;-75
2024/01/07 11:06:12;;;;;;;;;;;12.80;63.40;;;;;;6210418;23;19912;-75
2024/01/07 11:08:42;;;;;;;;;;;12.80;68.30;;;;;;6212820;23;20261;-75
2024/01/07 11:11:14;;;;;;;;;;;12.90;68.60;;;;;;6223003;23;19916;-75
2024/01/07 11:13:40;;;;;;;;;;;12.90;63.40;;;;;;6212968;23;19904;-75
2024/01/07 11:16:10;;;;;;;;;;;12.80;68.60;;;;;;6211662;23;19908;-75
2024/01/07 11:18:45;;;;;;;;;;;12.80;68.70;;;;;;6212322;23;19908;-75
2024/01/07 11:21:11;;;;;;;;;;;12.80;63.70;;;;;;6223755;23;19930;-76
2024/01/07 11:23:42;;;;;;;;;;;12.70;68.80;;;;;;6215023;23;20032;-75
2024/01/07 11:26:11;;;;;;;;;;;12.80;69.00;;;;;;6225073;23;19912;-75
2024/01/07 11:28:50;;;;;;;;;;;12.80;68.50;;;;;;6214702;23;19904;-75
2024/01/07 11:31:17;;;;;;;;;;;12.80;63.80;;;;;;6214970;23;20241;-73
2024/01/07 11:33:45;;;;;;;;;;;12.70;69.00;;;;;;6215252;23;19904;-74
2024/01/07 11:36:12;;;;;;;;;;;12.80;69.00;;;;;;6215236;23;19904;-74
2024/01/07 11:38:39;;;;;;;;;;;12.80;68.90;;;;;;6215190;23;19904;-74
2024/01/07 11:41:05;;;;;;;;;;;12.90;68.80;;;;;;6214958;23;19950;-76
2024/01/07 11:43:33;;;;;;;;;;;12.80;68.80;;;;;;6214874;23;19904;-72
2024/01/07 11:45:59;;;;;;;;;;;12.70;68.20;;;;;;6214996;23;19916;-72
2024/01/07 11:48:25;;;;;;;;;;;12.80;68.30;;;;;;6215281;23;20327;-74
2024/01/07 11:50:51;;;;;;;;;;;12.70;67.70;;;;;;6215131;23;20209;-73
2024/01/07 11:53:17;;;;;;;;;;;12.60;68.40;;;;;;6215293;23;19904;-73
2024/01/07 11:55:44;;;;;;;;;;;12.70;68.20;;;;;;6215151;23;20263;-72
2024/01/07 11:58:10;;;;;;;;;;;12.80;68.50;;;;;;6214811;23;19911;-73
2024/01/07 12:00:36;;;;;;;;;;;12.80;68.40;;;;;;6214681;23;19904;-73
2024/01/07 12:03:02;;;;;;;;;;;12.70;67.50;;;;;;6215227;23;20279;-77
2024/01/07 12:05:29;;;;;;;;;;;12.80;67.60;;;;;;6215334;23;19917;-79
2024/01/07 12:07:55;;;;;;;;;;;13.00;68.40;;;;;;6215099;23;19915;-75
2024/01/07 12:10:21;;;;;;;;;;;12.90;68.90;;;;;;6214954;23;19908;-76
2024/01/07 12:12:47;;;;;;;;;;;12.80;68.00;;;;;;6213430;23;19958;-78
2024/01/07 12:15:13;;;;;;;;;;;12.70;68.30;;;;;;6215089;23;19904;-78
2024/01/07 12:17:40;;;;;;;;;;;12.70;67.80;;;;;;6215011;23;19914;-76
2024/01/07 12:20:07;;;;;;;;;;;12.70;68.20;;;;;;6214755;23;20328;-74
2024/01/07 12:22:33;;;;;;;;;;;12.70;67.00;;;;;;6213007;23;19958;-73
2024/01/07 12:25:02;;;;;;;;;;;13.00;68.10;;;;;;6214533;23;20243;-74
2024/01/07 12:27:28;;;;;;;;;;;12.70;62.90;;;;;;6212987;23;19919;-75
2024/01/07 12:29:57;;;;;;;;;;;12.70;68.30;;;;;;6214503;23;19904;-73
2024/01/07 12:32:22;;;;;;;;;;;12.80;62.80;;;;;;6214498;23;19904;-74
2024/01/07 12:34:48;;;;;;;;;;;12.70;68.20;;;;;;6214576;23;19915;-74
2024/01/07 12:37:14;;;;;;;;;;;13.00;68.40;;;;;;6214483;23;19987;-78
2024/01/07 12:39:40;;;;;;;;;;;12.60;67.80;;;;;;6214702;23;19927;-72
2024/01/07 12:42:07;;;;;;;;;;;12.70;68.20;;;;;;6216366;23;19911;-72
2024/01/07 12:44:32;;;;;;;;;;;12.60;66.40;;;;;;6216177;23;19911;-73
2024/01/07 12:46:58;;;;;;;;;;;12.70;67.50;;;;;;6216201;23;19989;-72
2024/01/07 12:49:23;;;;;;;;;;;13.00;68.00;;;;;;6216279;23;19958;-71
2024/01/07 12:51:49;;;;;;;;;;;12.80;67.80;;;;;;6216343;23;19908;-72
2024/01/07 12:54:14;;;;;;;;;;;12.70;67.60;;;;;;6216158;23;19904;-73
2024/01/07 12:56:40;;;;;;;;;;;12.70;67.70;;;;;;6216234;23;19911;-75
2024/01/07 12:59:06;;;;;;;;;;;12.40;67.40;;;;;;6216492;23;19911;-73
2024/01/07 13:01:32;;;;;;;;;;;12.90;67.40;;;;;;6216199;23;19904;-73
2024/01/07 13:03:58;;;;;;;;;;;12.90;67.80;;;;;;6216333;23;19908;-75
2024/01/07 13:06:24;;;;;;;;;;;13.00;67.70;;;;;;6216176;23;20320;-75
2024/01/07 13:08:50;;;;;;;;;;;12.90;67.50;;;;;;6216637;23;19927;-75
2024/01/07 13:11:17;;;;;;;;;;;13.40;67.80;;;;;;6216514;23;19904;-75
2024/01/07 13:13:43;;;;;;;;;;;12.60;67.20;;;;;;6216538;23;19904;-75
2024/01/07 13:16:08;;;;;;;;;;;13.00;67.60;;;;;;6216348;23;19915;-75
2024/01/07 13:18:34;;;;;;;;;;;12.90;67.50;;;;;;6216035;23;20275;-77
2024/01/07 13:21:00;;;;;;;;;;;13.00;68.00;;;;;;6225881;23;19920;-75
2024/01/07 13:23:28;;;;;;;;;;;12.90;68.30;;;;;;6214152;23;19908;-75
2024/01/07 13:25:54;;;;;;;;;;;12.90;67.70;;;;;;6214801;23;20236;-75
2024/01/07 13:28:20;;;;;;;;;;;13.00;67.70;;;;;;6216280;23;19939;-75
2024/01/07 13:30:45;;;;;;;;;;;12.90;67.70;;;;;;6215970;23;19908;-75
2024/01/07 13:33:11;;;;;;;;;;;12.90;67.60;;;;;;6216417;23;19919;-72
2024/01/07 13:35:37;;;;;;;;;;;13.20;67.80;;;;;;6216382;23;19904;-72
2024/01/07 13:38:03;;;;;;;;;;;12.90;67.60;;;;;;6216305;23;19939;-72
2024/01/07 13:40:29;;;;;;;;;;;13.30;68.40;;;;;;6216337;23;20316;-72
2024/01/07 13:42:55;;;;;;;;;;;12.90;67.50;;;;;;6215934;23;19904;-72
2024/01/07 13:45:22;;;;;;;;;;;13.00;67.40;;;;;;6215801;23;19904;-72
2024/01/07 13:47:48;;;;;;;;;;;13.00;67.40;;;;;;6216015;23;20295;-72
2024/01/07 13:50:14;;;;;;;;;;;12.90;67.50;;;;;;6216735;23;20031;-76
2024/01/07 13:52:41;;;;;;;;;;;13.10;67.30;;;;;;6215491;23;19962;-74
2024/01/07 13:55:09;;;;;;;;;;;13.00;67.80;;;;;;6216147;23;19910;-76
2024/01/07 13:57:35;;;;;;;;;;;12.90;67.30;;;;;;6215926;23;19903;-75
2024/01/07 14:00:07;;;;;;;;;;;13.10;67.50;;;;;;6216182;23;19961;-72
2024/01/07 14:02:33;;;;;;;;;;;13.10;67.00;;;;;;6220786;23;19908;-72
2024/01/07 14:04:59;;;;;;;;;;;13.10;67.50;;;;;;6215714;23;19959;-72
2024/01/07 14:07:26;;;;;;;;;;;13.10;67.40;;;;;;6215543;23;19912;-72
2024/01/07 14:09:52;;;;;;;;;;;13.10;67.60;;;;;;6215698;23;19910;-73
2024/01/07 14:12:18;;;;;;;;;;;13.00;67.40;;;;;;6215616;23;19979;-72